Latest Weather Observations for Hobart

IDT60901

Issued at 10:21 am EDT Wednesday 22 February 2017 (issued every 10 minutes, with the page automatically refreshed every 10 minutes)

About weather observations | Map of Hobart area stations | Latest observations for Hobart area | Other Formats
Station Details ID: 094029 Name: HOBART (ELLERSLIE ROAD) Lat: -42.89 Lon: 147.33 Height: 50.5 m
Data from the previous 72 hours. | See also: Recent months at Hobart
Date/Time
EDT
Temp
°C
App
Temp
°C
Dew
Point
°C
Rel
Hum
%
Delta-T
°C
Wind Press
QNH
hPa
Press
MSL
hPa
Rain since
9am
mm
Dir  Spd
km/h
Gust
km/h
Spd
kts
Gust
kts
22/10:00am 15.3 11.3 9.1 66 3.2 NNW 20 33 11 18 1016.2 1016.1 0.0
22/09:30am 13.8 8.2 8.9 72 2.5 NNW 28 35 15 19 1016.2 1016.1 0.0
22/09:00am 12.5 7.6 8.5 76 2.0 NNW 24 28 13 15 1016.4 1016.3 0.0
22/08:30am 11.5 5.8 8.5 82 1.5 NNW 28 33 15 18 1016.4 1016.3 0.0
22/08:00am 11.1 5.7 8.2 82 1.4 NNW 26 35 14 19 1016.2 1016.1 0.0
22/07:30am 10.5 5.9 8.2 86 1.1 NNW 22 32 12 17 1016.1 1016.0 0.0
22/07:00am 10.4 5.9 8.4 87 1.0 NNW 22 30 12 16 1016.3 1016.2 0.0
22/06:30am 10.5 6.4 8.5 87 1.0 NNW 20 24 11 13 1016.5 1016.4 0.0
22/06:00am 10.5 6.4 8.5 87 1.0 NNW 20 24 11 13 1016.5 1016.4 0.0
22/05:30am 10.6 6.5 8.6 87 1.0 NNW 20 26 11 14 1016.4 1016.3 0.0
22/05:00am 10.8 7.3 8.8 87 1.0 NW 17 24 9 13 1016.7 1016.6 0.0
22/04:30am 11.0 8.6 8.6 85 1.2 NNW 11 19 6 10 1017.0 1016.9 0.0
22/04:00am 11.2 9.2 8.8 85 1.2 N 9 13 5 7 1017.5 1017.4 0.0
22/03:30am 11.4 8.7 8.8 84 1.3 NNW 13 19 7 10 1017.8 1017.7 0.0
22/03:00am 11.3 9.0 8.9 85 1.2 NNW 11 15 6 8 1018.1 1018.0 0.0
22/02:30am 10.9 8.9 8.5 85 1.2 NNW 9 11 5 6 1018.4 1018.3 0.0
22/02:00am 11.2 10.9 8.6 84 1.3 CALM 0 0 0 0 1018.4 1018.3 0.0
22/01:30am 11.3 11.0 8.7 84 1.3 CALM 0 0 0 0 1018.8 1018.7 0.0
22/01:00am 11.5 11.2 8.7 83 1.4 CALM 0 0 0 0 1019.4 1019.3 0.0
22/12:30am 11.6 10.0 8.8 83 1.4 WNW 7 9 4 5 1019.7 1019.6 0.0
22/12:00am 11.7 9.8 8.9 83 1.4 W 9 11 5 6 1019.7 1019.6 0.0
 
Date/Time
EDT
Temp
°C
App
Temp
°C
Dew
Point
°C
Rel
Hum
%
Delta-T
°C
Wind Press
QNH
hPa
Press
MSL
hPa
Rain since
9am
mm
Dir  Spd
km/h
Gust
km/h
Spd
kts
Gust
kts
21/11:30pm 12.0 9.3 8.8 81 1.6 W 13 15 7 8 1020.1 1020.0 0.0
21/11:00pm 12.4 10.0 8.8 79 1.8 WSW 11 15 6 8 1020.1 1020.0 0.0
21/10:30pm 12.7 10.4 8.9 78 1.9 WSW 11 15 6 8 1020.2 1020.1 0.0
21/10:00pm 12.9 10.6 9.1 78 1.9 WSW 11 15 6 8 1020.4 1020.3 0.0
21/09:30pm 13.4 11.5 9.0 75 2.2 SW 9 13 5 7 1020.3 1020.2 0.0
21/09:00pm 14.1 11.3 8.5 69 2.8 SE 13 17 7 9 1020.0 1019.9 0.0
21/08:30pm 14.5 11.4 8.8 68 2.9 ESE 15 20 8 11 1019.6 1019.5 0.0
21/08:00pm 14.8 12.4 8.7 67 3.1 SSE 11 19 6 10 1019.3 1019.2 0.0
21/07:30pm 15.1 11.0 8.6 65 3.3 SE 20 26 11 14 1018.7 1018.6 0.0
21/07:00pm 15.7 11.7 9.1 65 3.4 SE 20 28 11 15 1018.2 1018.1 0.0
21/06:30pm 16.4 12.4 8.3 58 4.1 SE 19 28 10 15 1017.9 1017.8 0.0
21/06:00pm 17.2 13.0 8.4 56 4.5 SE 20 30 11 16 1017.7 1017.6 0.0
21/05:30pm 18.5 14.7 7.4 48 5.6 ESE 17 26 9 14 1017.3 1017.2 0.0
21/05:00pm 20.3 16.3 3.1 32 8.1 E 13 17 7 9 1016.9 1016.8 0.0
21/04:30pm 20.2 16.2 3.0 32 8.1 ESE 13 20 7 11 1016.7 1016.6 0.0
21/04:00pm 20.1 15.9 4.0 34 7.7 ESE 15 19 8 10 1016.7 1016.6 0.0
21/03:30pm 20.0 16.3 2.6 31 8.1 E 11 15 6 8 1016.7 1016.6 0.0
21/03:00pm 20.5 16.6 3.5 32 8.1 NE 13 17 7 9 1016.8 1016.7 0.0
21/02:30pm 19.5 16.2 4.3 36 7.3 ENE 11 17 6 9 1017.1 1017.0 0.0
21/02:00pm 18.4 14.7 4.3 39 6.7 ESE 13 17 7 9 1017.4 1017.3 0.0
21/01:30pm 18.3 14.6 4.5 40 6.6 SE 13 19 7 10 1017.5 1017.4 0.0
21/01:00pm 17.4 13.5 3.4 39 6.5 E 13 20 7 11 1017.5 1017.4 0.0
21/12:30pm 17.5 14.2 4.4 42 6.2 ENE 11 17 6 9 1017.8 1017.7 0.0
21/12:00pm 16.8 13.4 3.9 42 6.0 E 11 15 6 8 1017.8 1017.7 0.0
21/11:30am 16.3 12.6 4.3 45 5.6 ENE 13 20 7 11 1017.9 1017.8 0.0
21/11:00am 17.1 14.2 4.4 43 6.0 ENE 9 13 5 7 1017.9 1017.8 0.0
21/10:30am 16.6 13.4 5.3 47 5.4 ENE 11 17 6 9 1017.8 1017.7 0.0
21/10:00am 16.0 12.6 6.1 52 4.8 NE 13 17 7 9 1017.6 1017.5 0.0
21/09:30am 16.2 13.6 6.1 51 4.9 N 9 15 5 8 1017.7 1017.6 0.0
21/09:00am 14.4 12.0 6.8 60 3.7 NNE 9 15 5 8 1017.4 1017.3 3.0
21/08:30am 13.3 10.8 6.6 64 3.2 N 9 13 5 7 1017.4 1017.3 3.0
21/08:00am 11.6 9.6 7.0 73 2.2 NW 7 13 4 7 1017.0 1016.9 3.0
21/07:30am 10.6 8.6 6.1 74 2.1 W 6 11 3 6 1016.4 1016.3 3.0
21/07:00am 10.4 8.2 6.1 75 2.0 NNW 7 11 4 6 1016.1 1016.0 3.0
21/06:30am 10.5 9.6 6.0 74 2.1 CALM 0 6 0 3 1015.8 1015.7 3.0
21/06:00am 10.5 8.1 5.2 70 2.4 SW 7 9 4 5 1015.4 1015.3 3.0
21/05:30am 10.1 8.7 5.5 73 2.1 SW 2 6 1 3 1014.7 1014.6 3.0
21/05:00am 10.6 8.2 5.1 69 2.5 NNW 7 9 4 5 1014.6 1014.5 3.0
21/04:30am 11.7 7.9 4.1 59 3.4 W 13 19 7 10 1014.3 1014.2 3.0
21/04:00am 10.5 7.4 5.7 72 2.2 W 11 19 6 10 1014.2 1014.1 2.8
21/03:30am 11.3 8.8 5.0 65 2.9 SSE 7 13 4 7 1013.9 1013.8 2.8
21/03:00am 10.8 7.9 6.6 75 2.0 NW 11 13 6 7 1013.7 1013.6 2.8
21/02:30am 11.5 8.4 5.7 67 2.7 WSW 11 20 6 11 1013.4 1013.3 2.8
21/02:00am 12.3 8.3 4.9 60 3.4 SSW 15 26 8 14 1013.3 1013.2 2.8
21/01:30am 12.1 8.0 6.4 68 2.7 SSW 17 30 9 16 1013.3 1013.2 2.8
21/01:00am 11.9 8.9 7.6 75 2.1 S 13 20 7 11 1013.3 1013.2 2.8
21/12:30am 12.6 10.2 7.0 68 2.7 SE 9 11 5 6 1013.3 1013.2 2.8
21/12:00am 12.8 11.0 7.9 72 2.4 SW 7 17 4 9 1013.3 1013.2 2.8
 
Date/Time
EDT
Temp
°C
App
Temp
°C
Dew
Point
°C
Rel
Hum
%
Delta-T
°C
Wind Press
QNH
hPa
Press
MSL
hPa
Rain since
9am
mm
Dir  Spd
km/h
Gust
km/h
Spd
kts
Gust
kts
20/11:30pm 12.8 9.5 8.2 73 2.3 SSW 15 20 8 11 1013.1 1013.0 2.8
20/11:00pm 12.5 10.1 8.7 77 1.9 SW 11 19 6 10 1012.9 1012.8 2.8
20/10:30pm 12.6 9.7 8.2 74 2.2 SSW 13 22 7 12 1012.7 1012.6 2.8
20/10:00pm 12.8 11.2 8.8 76 2.0 ESE 7 13 4 7 1012.7 1012.6 2.8
20/09:30pm 12.7 10.9 9.4 80 1.7 S 9 17 5 9 1012.5 1012.4 2.8
20/09:00pm 12.8 11.3 9.0 78 1.9 SW 7 13 4 7 1012.0 1011.9 2.8
20/08:30pm 12.5 11.7 9.8 83 1.4 SE 4 9 2 5 1011.4 1011.3 2.8
20/08:00pm 12.9 11.0 10.6 86 1.2 SSW 11 19 6 10 1011.2 1011.1 2.8
20/07:30pm 13.2 11.3 10.5 84 1.4 SSW 11 17 6 9 1010.8 1010.7 2.4
20/07:00pm 13.4 10.0 10.5 82 1.5 S 19 32 10 17 1010.4 1010.3 2.4
20/06:30pm 13.9 11.7 10.7 81 1.7 SSW 13 19 7 10 1009.7 1009.7 2.4
20/06:00pm 13.9 11.1 11.3 84 1.4 SSW 17 30 9 16 1009.5 1009.5 2.4
20/05:30pm 13.4 10.1 11.5 88 1.0 S 20 32 11 17 1009.0 1009.0 2.4
20/05:09pm 13.3 8.0 11.2 87 1.1 S 30 48 16 26 1008.7 1008.7 2.2
20/05:00pm 13.5 7.8 11.0 85 1.3 SSE 32 48 17 26 1008.6 1008.6 2.0
20/04:57pm 13.7 9.5 11.1 84 1.4 SSE 24 48 13 26 1008.5 1008.5 2.0
20/04:30pm 14.5 10.7 11.1 80 1.8 SSW 22 41 12 22 1008.3 1008.3 1.8
20/04:00pm 14.6 11.5 11.6 82 1.6 SSW 19 26 10 14 1008.1 1008.0 1.8
20/03:30pm 13.6 9.6 11.7 88 1.0 SSW 24 32 13 17 1008.1 1008.0 1.8
20/03:00pm 13.8 8.9 11.2 84 1.4 S 28 43 15 23 1008.3 1008.3 0.6
20/02:31pm 16.5 11.1 9.6 63 3.6 SSW 28 50 15 27 1007.8 1007.7 0.2
20/02:30pm 16.6 11.7 9.8 64 3.6 S 26 50 14 27 1007.8 1007.7 0.2
20/02:00pm 14.7 9.4 11.1 79 1.9 SSW 30 46 16 25 1007.7 1007.6 0.2
20/01:44pm 15.6 10.4 10.1 70 2.9 S 28 46 15 25 1007.7 1007.6 0.0
20/01:30pm 16.6 11.9 7.7 55 4.5 S 22 32 12 17 1007.7 1007.6 0.0
20/01:00pm 17.0 12.0 8.0 55 4.6 SSW 24 35 13 19 1007.7 1007.6 0.0
20/12:30pm 16.6 12.3 7.9 56 4.4 SSW 20 28 11 15 1007.9 1007.8 0.0
20/12:00pm 16.9 11.8 7.8 55 4.6 SSW 24 35 13 19 1007.9 1007.8 0.0
20/11:30am 16.2 12.5 7.9 58 4.2 S 17 28 9 15 1008.1 1008.0 0.0
20/11:00am 13.8 11.6 7.8 67 3.0 N 9 15 5 8 1008.3 1008.3 0.0
20/10:30am 12.6 10.0 7.9 73 2.3 NNW 11 19 6 10 1008.4 1008.4 0.0
20/10:00am 11.9 9.3 7.8 76 2.0 N 11 15 6 8 1008.5 1008.5 0.0
20/09:30am 10.9 8.4 8.0 82 1.4 N 11 15 6 8 1008.2 1008.2 0.0
20/09:00am 10.2 6.7 7.3 82 1.4 NNW 15 20 8 11 1008.1 1008.0 0.6
20/08:30am 9.9 6.3 6.7 80 1.5 NNW 15 19 8 10 1008.0 1007.9 0.6
20/08:00am 9.3 5.3 6.7 84 1.2 NNW 17 20 9 11 1007.7 1007.6 0.6
20/07:30am 8.9 4.9 6.8 87 1.0 NNW 17 20 9 11 1007.7 1007.6 0.6
20/07:00am 8.9 5.3 6.8 87 1.0 NW 15 20 8 11 1007.7 1007.6 0.6
20/06:30am 8.8 5.6 6.7 87 1.0 NW 13 19 7 10 1007.3 1007.2 0.6
20/06:00am 8.9 5.4 7.0 88 0.9 NW 15 19 8 10 1007.3 1007.2 0.6
20/05:30am 9.0 4.7 7.1 88 0.9 NNW 19 24 10 13 1007.0 1006.9 0.6
20/05:00am 9.2 6.0 6.9 85 1.1 NW 13 19 7 10 1006.8 1006.7 0.6
20/04:30am 9.2 5.7 7.1 87 1.0 NNW 15 19 8 10 1006.8 1006.7 0.6
20/04:00am 9.1 6.7 6.8 85 1.1 NW 9 11 5 6 1006.8 1006.7 0.6
20/03:30am 9.0 6.6 6.9 87 1.0 NW 9 13 5 7 1006.8 1006.7 0.6
20/03:00am 9.5 7.1 7.2 85 1.1 NNW 9 15 5 8 1007.0 1006.9 0.6
20/02:30am 9.7 7.4 7.4 85 1.1 WNW 9 15 5 8 1006.9 1006.8 0.6
20/02:00am 10.0 6.6 7.7 86 1.1 NNW 15 19 8 10 1006.7 1006.6 0.6
20/01:30am 10.0 8.0 7.3 83 1.3 WNW 7 9 4 5 1006.3 1006.2 0.6
20/01:00am 10.3 8.7 7.8 84 1.2 NW 6 9 3 5 1006.5 1006.4 0.6
20/12:30am 10.9 8.7 7.8 81 1.5 NW 9 13 5 7 1006.5 1006.4 0.6
20/12:00am 11.8 9.9 6.8 71 2.4 NNE 6 7 3 4 1006.3 1006.2 0.6
 
Date/Time
EDT
Temp
°C
App
Temp
°C
Dew
Point
°C
Rel
Hum
%
Delta-T
°C
Wind Press
QNH
hPa
Press
MSL
hPa
Rain since
9am
mm
Dir  Spd
km/h
Gust
km/h
Spd
kts
Gust
kts
19/11:30pm 12.2 10.5 7.7 74 2.2 N 6 7 3 4 1006.4 1006.3 0.6
19/11:00pm 12.5 10.7 7.8 73 2.3 W 7 11 4 6 1006.7 1006.6 0.6
19/10:30pm 12.7 9.3 7.8 72 2.4 WSW 15 19 8 10 1006.7 1006.6 0.6
19/10:00pm 13.4 10.9 8.4 72 2.5 WSW 11 20 6 11 1006.6 1006.5 0.6
19/09:30pm 14.5 11.9 7.7 63 3.4 WSW 11 28 6 15 1006.4 1006.3 0.6
19/09:00pm 14.6 11.2 6.1 56 4.1 SSW 13 20 7 11 1005.9 1005.8 0.6
19/08:30pm 14.6 10.6 6.6 58 3.9 SW 17 20 9 11 1005.5 1005.4 0.6
19/08:00pm 14.7 11.2 7.2 61 3.7 SSW 15 22 8 12 1004.8 1004.7 0.6
19/07:30pm 15.1 11.3 6.0 54 4.4 S 15 20 8 11 1004.5 1004.4 0.6
19/07:00pm 15.5 11.6 5.2 50 4.9 S 15 22 8 12 1004.4 1004.3 0.6
19/06:30pm 16.1 12.0 4.4 45 5.5 SSE 15 22 8 12 1004.1 1004.0 0.6
19/06:00pm 16.4 11.8 3.7 42 5.9 SE 17 24 9 13 1003.9 1003.8 0.6
19/05:30pm 16.4 11.4 4.6 45 5.6 SE 20 28 11 15 1003.7 1003.6 0.6
19/05:00pm 16.6 11.6 3.8 42 6.0 SE 19 22 10 12 1003.5 1003.4 0.6
19/04:30pm 16.7 11.7 4.5 44 5.8 SE 20 30 11 16 1003.5 1003.4 0.6
19/04:00pm 16.6 11.5 4.3 44 5.8 SE 20 28 11 15 1003.4 1003.3 0.6
19/03:30pm 16.8 12.6 3.8 42 6.1 ESE 15 19 8 10 1003.5 1003.4 0.6
19/03:00pm 15.6 11.7 3.4 44 5.6 SE 13 22 7 12 1003.9 1003.8 0.4
19/02:30pm 14.7 10.9 4.1 49 4.9 ESE 13 17 7 9 1004.0 1003.9 0.4
19/02:00pm 15.4 11.1 5.1 50 4.9 ESE 17 22 9 12 1004.0 1003.9 0.4
19/01:30pm 14.4 11.5 4.8 52 4.5 SE 9 13 5 7 1004.0 1003.9 0.4
19/01:00pm 13.2 10.4 7.0 66 3.0 SE 11 19 6 10 1004.2 1004.1 0.4
19/12:30pm 12.0 8.7 7.9 76 2.0 NE 15 19 8 10 1004.6 1004.5 0.4
19/12:00pm 13.5 9.9 5.2 57 3.9 N 13 17 7 9 1004.4 1004.3 0.0
19/11:30am 15.1 11.5 3.0 44 5.5 NE 11 15 6 8 1004.2 1004.1 0.0
19/11:00am 14.9 11.7 3.3 45 5.3 N 9 17 5 9 1004.2 1004.1 0.0
19/10:30am 14.6 10.6 2.8 45 5.3 NNW 13 19 7 10 1004.0 1003.9 0.0

Latest Capital City Observations: Canberra | Sydney | Melbourne | Brisbane | Adelaide | Perth | Hobart | Darwin

Other Formats:

Comma delimited format used in spreadsheet applications
http://www.bom.gov.au/fwo/IDT60901/IDT60901.94970.axf

JavaScript Object Notation format (JSON) in row-major order
http://www.bom.gov.au/fwo/IDT60901/IDT60901.94970.json